sensor_id;sensor_type;location;lat;lon;timestamp;P1;durP1;ratioP1;P2;durP2;ratioP2
48777;SDS011;34578;0.000;0.000;2024-03-02T00:00:53;1.92;;;1.38;;
48777;SDS011;34578;0.000;0.000;2024-03-02T00:05:54;2.70;;;1.77;;
48777;SDS011;34578;0.000;0.000;2024-03-02T00:10:57;2.43;;;1.50;;
48777;SDS011;34578;0.000;0.000;2024-03-02T00:15:58;3.40;;;1.58;;
48777;SDS011;34578;0.000;0.000;2024-03-02T00:20:59;3.10;;;1.23;;
48777;SDS011;34578;0.000;0.000;2024-03-02T00:26:00;2.10;;;1.67;;
48777;SDS011;34578;0.000;0.000;2024-03-02T00:36:05;2.95;;;1.25;;
48777;SDS011;34578;0.000;0.000;2024-03-02T00:41:06;2.42;;;1.50;;
48777;SDS011;34578;0.000;0.000;2024-03-02T00:46:15;1.92;;;1.42;;
48777;SDS011;34578;0.000;0.000;2024-03-02T00:51:17;4.13;;;1.80;;
48777;SDS011;34578;0.000;0.000;2024-03-02T00:56:18;1.70;;;1.25;;
48777;SDS011;34578;0.000;0.000;2024-03-02T01:01:19;1.45;;;1.27;;
48777;SDS011;34578;0.000;0.000;2024-03-02T01:06:23;2.60;;;1.27;;
48777;SDS011;34578;0.000;0.000;2024-03-02T01:11:23;2.00;;;1.30;;
48777;SDS011;34578;0.000;0.000;2024-03-02T01:16:23;2.13;;;1.40;;
48777;SDS011;34578;0.000;0.000;2024-03-02T01:21:24;1.33;;;1.17;;
48777;SDS011;34578;0.000;0.000;2024-03-02T01:26:24;2.20;;;1.20;;
48777;SDS011;34578;0.000;0.000;2024-03-02T01:31:27;3.50;;;1.25;;
48777;SDS011;34578;0.000;0.000;2024-03-02T01:36:27;2.23;;;1.30;;
48777;SDS011;34578;0.000;0.000;2024-03-02T01:41:28;3.05;;;1.10;;
48777;SDS011;34578;0.000;0.000;2024-03-02T01:46:28;2.07;;;1.37;;
48777;SDS011;34578;0.000;0.000;2024-03-02T01:51:29;3.90;;;1.50;;
48777;SDS011;34578;0.000;0.000;2024-03-02T01:56:29;1.55;;;1.17;;
48777;SDS011;34578;0.000;0.000;2024-03-02T02:01:30;2.70;;;1.10;;
48777;SDS011;34578;0.000;0.000;2024-03-02T02:06:31;3.30;;;1.13;;
48777;SDS011;34578;0.000;0.000;2024-03-02T02:11:32;1.23;;;0.77;;
48777;SDS011;34578;0.000;0.000;2024-03-02T02:16:32;1.53;;;1.00;;
48777;SDS011;34578;0.000;0.000;2024-03-02T02:21:32;1.40;;;1.20;;
48777;SDS011;34578;0.000;0.000;2024-03-02T02:26:33;3.03;;;0.88;;
48777;SDS011;34578;0.000;0.000;2024-03-02T02:31:36;1.87;;;1.23;;
48777;SDS011;34578;0.000;0.000;2024-03-02T02:36:38;2.45;;;1.38;;
48777;SDS011;34578;0.000;0.000;2024-03-02T02:41:40;1.20;;;0.80;;
48777;SDS011;34578;0.000;0.000;2024-03-02T02:46:40;1.43;;;1.10;;
48777;SDS011;34578;0.000;0.000;2024-03-02T02:51:41;2.00;;;0.80;;
48777;SDS011;34578;0.000;0.000;2024-03-02T02:56:41;1.40;;;1.20;;
48777;SDS011;34578;0.000;0.000;2024-03-02T03:01:41;0.87;;;0.70;;
48777;SDS011;34578;0.000;0.000;2024-03-02T03:06:42;1.37;;;1.20;;
48777;SDS011;34578;0.000;0.000;2024-03-02T03:11:42;1.37;;;0.97;;
48777;SDS011;34578;0.000;0.000;2024-03-02T03:16:42;3.73;;;1.33;;
48777;SDS011;34578;0.000;0.000;2024-03-02T03:21:43;2.03;;;1.00;;
48777;SDS011;34578;0.000;0.000;2024-03-02T03:26:43;2.58;;;0.98;;
48777;SDS011;34578;0.000;0.000;2024-03-02T03:31:44;3.43;;;1.10;;
48777;SDS011;34578;0.000;0.000;2024-03-02T03:36:44;1.40;;;0.80;;
48777;SDS011;34578;0.000;0.000;2024-03-02T03:41:44;1.80;;;1.07;;
48777;SDS011;34578;0.000;0.000;2024-03-02T03:46:45;0.90;;;0.68;;
48777;SDS011;34578;0.000;0.000;2024-03-02T03:51:46;3.45;;;0.93;;
48777;SDS011;34578;0.000;0.000;2024-03-02T03:56:46;1.20;;;1.03;;
48777;SDS011;34578;0.000;0.000;2024-03-02T04:01:49;2.20;;;1.05;;
48777;SDS011;34578;0.000;0.000;2024-03-02T04:06:49;1.07;;;0.87;;
48777;SDS011;34578;0.000;0.000;2024-03-02T04:11:49;1.17;;;0.93;;
48777;SDS011;34578;0.000;0.000;2024-03-02T04:16:50;3.10;;;0.83;;
48777;SDS011;34578;0.000;0.000;2024-03-02T04:21:50;0.77;;;0.60;;
48777;SDS011;34578;0.000;0.000;2024-03-02T04:26:51;0.70;;;0.60;;
48777;SDS011;34578;0.000;0.000;2024-03-02T04:31:51;1.77;;;0.80;;
48777;SDS011;34578;0.000;0.000;2024-03-02T04:36:51;2.43;;;1.07;;
48777;SDS011;34578;0.000;0.000;2024-03-02T04:41:52;4.17;;;0.90;;
48777;SDS011;34578;0.000;0.000;2024-03-02T04:46:52;0.87;;;0.70;;
48777;SDS011;34578;0.000;0.000;2024-03-02T04:51:52;1.67;;;0.90;;
48777;SDS011;34578;0.000;0.000;2024-03-02T04:56:53;1.47;;;0.80;;
48777;SDS011;34578;0.000;0.000;2024-03-02T05:01:53;1.23;;;0.75;;
48777;SDS011;34578;0.000;0.000;2024-03-02T05:06:53;1.17;;;0.80;;
48777;SDS011;34578;0.000;0.000;2024-03-02T05:11:56;1.67;;;0.80;;
48777;SDS011;34578;0.000;0.000;2024-03-02T05:17:11;1.10;;;0.93;;
48777;SDS011;34578;0.000;0.000;2024-03-02T05:22:12;1.47;;;0.90;;
48777;SDS011;34578;0.000;0.000;2024-03-02T05:27:12;1.20;;;0.80;;
48777;SDS011;34578;0.000;0.000;2024-03-02T05:32:12;2.40;;;1.00;;
48777;SDS011;34578;0.000;0.000;2024-03-02T05:37:13;0.90;;;0.60;;
48777;SDS011;34578;0.000;0.000;2024-03-02T05:42:13;1.60;;;0.67;;
48777;SDS011;34578;0.000;0.000;2024-03-02T05:47:14;4.13;;;0.80;;
48777;SDS011;34578;0.000;0.000;2024-03-02T05:52:14;2.70;;;1.03;;
48777;SDS011;34578;0.000;0.000;2024-03-02T05:57:15;3.83;;;0.80;;
48777;SDS011;34578;0.000;0.000;2024-03-02T06:02:32;2.05;;;0.70;;
48777;SDS011;34578;0.000;0.000;2024-03-02T06:07:32;1.40;;;0.83;;
48777;SDS011;34578;0.000;0.000;2024-03-02T06:12:33;4.00;;;0.75;;
48777;SDS011;34578;0.000;0.000;2024-03-02T06:17:34;1.23;;;0.60;;
48777;SDS011;34578;0.000;0.000;2024-03-02T06:22:35;1.75;;;0.77;;
48777;SDS011;34578;0.000;0.000;2024-03-02T06:27:36;2.13;;;0.70;;
48777;SDS011;34578;0.000;0.000;2024-03-02T06:32:36;2.93;;;0.63;;
48777;SDS011;34578;0.000;0.000;2024-03-02T06:37:37;1.83;;;0.50;;
48777;SDS011;34578;0.000;0.000;2024-03-02T06:42:40;2.75;;;0.80;;
48777;SDS011;34578;0.000;0.000;2024-03-02T06:47:41;1.63;;;0.70;;
48777;SDS011;34578;0.000;0.000;2024-03-02T06:52:41;0.82;;;0.70;;
48777;SDS011;34578;0.000;0.000;2024-03-02T06:57:42;0.73;;;0.70;;
48777;SDS011;34578;0.000;0.000;2024-03-02T07:02:42;1.93;;;1.10;;
48777;SDS011;34578;0.000;0.000;2024-03-02T07:07:43;0.83;;;0.50;;
48777;SDS011;34578;0.000;0.000;2024-03-02T07:12:45;0.52;;;0.50;;
48777;SDS011;34578;0.000;0.000;2024-03-02T07:17:45;0.97;;;0.70;;
48777;SDS011;34578;0.000;0.000;2024-03-02T07:22:46;0.88;;;0.50;;
48777;SDS011;34578;0.000;0.000;2024-03-02T07:27:46;1.08;;;0.80;;
48777;SDS011;34578;0.000;0.000;2024-03-02T07:32:49;1.50;;;0.70;;
48777;SDS011;34578;0.000;0.000;2024-03-02T07:37:50;1.23;;;0.60;;
48777;SDS011;34578;0.000;0.000;2024-03-02T07:42:51;0.82;;;0.60;;
48777;SDS011;34578;0.000;0.000;2024-03-02T07:47:51;1.00;;;0.80;;
48777;SDS011;34578;0.000;0.000;2024-03-02T07:52:52;0.90;;;0.67;;
48777;SDS011;34578;0.000;0.000;2024-03-02T07:57:52;1.00;;;0.57;;
48777;SDS011;34578;0.000;0.000;2024-03-02T08:02:53;4.20;;;0.73;;
48777;SDS011;34578;0.000;0.000;2024-03-02T08:07:53;0.93;;;0.60;;
48777;SDS011;34578;0.000;0.000;2024-03-02T08:12:54;1.17;;;0.63;;
48777;SDS011;34578;0.000;0.000;2024-03-02T08:17:54;4.13;;;0.60;;
48777;SDS011;34578;0.000;0.000;2024-03-02T08:22:56;3.78;;;1.08;;
48777;SDS011;34578;0.000;0.000;2024-03-02T08:27:56;2.20;;;0.90;;
48777;SDS011;34578;0.000;0.000;2024-03-02T08:32:57;2.78;;;1.10;;
48777;SDS011;34578;0.000;0.000;2024-03-02T08:37:58;2.73;;;1.00;;
48777;SDS011;34578;0.000;0.000;2024-03-02T08:42:58;0.93;;;0.83;;
48777;SDS011;34578;0.000;0.000;2024-03-02T08:47:58;3.78;;;1.00;;
48777;SDS011;34578;0.000;0.000;2024-03-02T08:52:59;2.73;;;0.77;;
48777;SDS011;34578;0.000;0.000;2024-03-02T08:57:59;1.40;;;1.00;;
48777;SDS011;34578;0.000;0.000;2024-03-02T09:02:59;1.33;;;0.50;;
48777;SDS011;34578;0.000;0.000;2024-03-02T09:08:00;2.33;;;1.13;;
48777;SDS011;34578;0.000;0.000;2024-03-02T09:13:00;1.50;;;0.70;;
48777;SDS011;34578;0.000;0.000;2024-03-02T09:18:01;3.78;;;0.88;;
48777;SDS011;34578;0.000;0.000;2024-03-02T09:23:01;8.53;;;1.13;;
48777;SDS011;34578;0.000;0.000;2024-03-02T09:28:02;2.73;;;1.20;;
48777;SDS011;34578;0.000;0.000;2024-03-02T09:33:03;3.70;;;0.90;;
48777;SDS011;34578;0.000;0.000;2024-03-02T09:38:03;7.57;;;1.27;;
48777;SDS011;34578;0.000;0.000;2024-03-02T09:43:04;8.13;;;1.13;;
48777;SDS011;34578;0.000;0.000;2024-03-02T09:48:05;4.93;;;1.23;;
48777;SDS011;34578;0.000;0.000;2024-03-02T09:53:06;4.35;;;1.77;;
48777;SDS011;34578;0.000;0.000;2024-03-02T09:58:07;5.00;;;1.95;;
48777;SDS011;34578;0.000;0.000;2024-03-02T10:03:14;2.97;;;0.77;;
48777;SDS011;34578;0.000;0.000;2024-03-02T10:08:14;3.78;;;1.73;;
48777;SDS011;34578;0.000;0.000;2024-03-02T10:13:15;5.93;;;1.10;;
48777;SDS011;34578;0.000;0.000;2024-03-02T10:18:18;14.25;;;1.30;;
48777;SDS011;34578;0.000;0.000;2024-03-02T10:23:27;10.73;;;2.05;;
48777;SDS011;34578;0.000;0.000;2024-03-02T10:28:27;12.23;;;1.53;;
48777;SDS011;34578;0.000;0.000;2024-03-02T10:33:28;11.65;;;2.38;;
48777;SDS011;34578;0.000;0.000;2024-03-02T10:38:28;11.67;;;1.43;;
48777;SDS011;34578;0.000;0.000;2024-03-02T10:43:28;5.97;;;1.67;;
48777;SDS011;34578;0.000;0.000;2024-03-02T10:48:30;8.23;;;1.90;;
48777;SDS011;34578;0.000;0.000;2024-03-02T10:53:31;8.43;;;1.20;;
48777;SDS011;34578;0.000;0.000;2024-03-02T10:58:32;6.50;;;1.20;;
48777;SDS011;34578;0.000;0.000;2024-03-02T11:03:36;5.95;;;1.63;;
48777;SDS011;34578;0.000;0.000;2024-03-02T11:08:40;4.00;;;0.95;;
48777;SDS011;34578;0.000;0.000;2024-03-02T11:13:42;2.70;;;1.10;;
48777;SDS011;34578;0.000;0.000;2024-03-02T11:18:49;8.15;;;1.17;;
48777;SDS011;34578;0.000;0.000;2024-03-02T11:23:50;3.30;;;0.93;;
48777;SDS011;34578;0.000;0.000;2024-03-02T11:28:50;2.17;;;0.83;;
48777;SDS011;34578;0.000;0.000;2024-03-02T11:33:53;3.80;;;1.00;;
48777;SDS011;34578;0.000;0.000;2024-03-02T11:38:53;4.00;;;0.90;;
48777;SDS011;34578;0.000;0.000;2024-03-02T11:43:53;4.07;;;1.00;;
48777;SDS011;34578;0.000;0.000;2024-03-02T11:48:54;2.57;;;1.00;;
48777;SDS011;34578;0.000;0.000;2024-03-02T11:53:54;4.23;;;0.90;;
48777;SDS011;34578;0.000;0.000;2024-03-02T11:58:56;3.40;;;0.80;;
48777;SDS011;34578;0.000;0.000;2024-03-02T12:03:58;1.73;;;0.68;;
48777;SDS011;34578;0.000;0.000;2024-03-02T12:08:58;5.63;;;0.80;;
48777;SDS011;34578;0.000;0.000;2024-03-02T12:13:59;3.45;;;0.80;;
48777;SDS011;34578;0.000;0.000;2024-03-02T12:18:59;2.13;;;0.83;;
48777;SDS011;34578;0.000;0.000;2024-03-02T12:24:00;2.30;;;1.00;;
48777;SDS011;34578;0.000;0.000;2024-03-02T12:29:01;1.23;;;0.70;;
48777;SDS011;34578;0.000;0.000;2024-03-02T12:34:02;1.90;;;0.50;;
48777;SDS011;34578;0.000;0.000;2024-03-02T12:39:04;1.08;;;0.60;;
48777;SDS011;34578;0.000;0.000;2024-03-02T12:44:07;2.65;;;1.30;;
48777;SDS011;34578;0.000;0.000;2024-03-02T12:49:09;1.02;;;0.65;;
48777;SDS011;34578;0.000;0.000;2024-03-02T12:54:13;2.40;;;0.63;;
48777;SDS011;34578;0.000;0.000;2024-03-02T12:59:18;0.80;;;0.50;;
48777;SDS011;34578;0.000;0.000;2024-03-02T13:04:23;2.25;;;0.80;;
48777;SDS011;34578;0.000;0.000;2024-03-02T13:09:24;0.70;;;0.57;;
48777;SDS011;34578;0.000;0.000;2024-03-02T13:14:26;0.80;;;0.57;;
48777;SDS011;34578;0.000;0.000;2024-03-02T13:19:26;1.47;;;0.70;;
48777;SDS011;34578;0.000;0.000;2024-03-02T13:24:30;0.47;;;0.40;;
48777;SDS011;34578;0.000;0.000;2024-03-02T13:29:31;2.75;;;0.60;;
48777;SDS011;34578;0.000;0.000;2024-03-02T13:34:31;1.10;;;0.60;;
48777;SDS011;34578;0.000;0.000;2024-03-02T13:39:32;2.22;;;0.90;;
48777;SDS011;34578;0.000;0.000;2024-03-02T13:44:32;2.72;;;0.68;;
48777;SDS011;34578;0.000;0.000;2024-03-02T13:49:33;2.30;;;1.10;;
48777;SDS011;34578;0.000;0.000;2024-03-02T13:54:36;4.47;;;0.60;;
48777;SDS011;34578;0.000;0.000;2024-03-02T13:59:37;4.03;;;0.70;;
48777;SDS011;34578;0.000;0.000;2024-03-02T14:04:38;2.83;;;0.70;;
48777;SDS011;34578;0.000;0.000;2024-03-02T14:09:39;1.30;;;0.60;;
48777;SDS011;34578;0.000;0.000;2024-03-02T14:14:40;4.25;;;2.25;;
48777;SDS011;34578;0.000;0.000;2024-03-02T14:19:40;12.60;;;1.50;;
48777;SDS011;34578;0.000;0.000;2024-03-02T14:24:41;7.97;;;1.37;;
48777;SDS011;34578;0.000;0.000;2024-03-02T14:29:43;4.88;;;0.90;;
48777;SDS011;34578;0.000;0.000;2024-03-02T14:34:43;3.83;;;0.82;;
48777;SDS011;34578;0.000;0.000;2024-03-02T14:39:46;10.13;;;1.80;;
48777;SDS011;34578;0.000;0.000;2024-03-02T14:44:47;6.38;;;1.13;;
48777;SDS011;34578;0.000;0.000;2024-03-02T14:49:47;12.25;;;1.92;;
48777;SDS011;34578;0.000;0.000;2024-03-02T14:54:48;5.78;;;1.23;;
48777;SDS011;34578;0.000;0.000;2024-03-02T14:59:48;4.40;;;2.43;;
48777;SDS011;34578;0.000;0.000;2024-03-02T15:04:48;3.67;;;1.37;;
48777;SDS011;34578;0.000;0.000;2024-03-02T15:09:49;9.57;;;1.17;;
48777;SDS011;34578;0.000;0.000;2024-03-02T15:14:50;5.60;;;1.33;;
48777;SDS011;34578;0.000;0.000;2024-03-02T15:19:50;6.50;;;1.13;;
48777;SDS011;34578;0.000;0.000;2024-03-02T15:24:51;2.60;;;0.80;;
48777;SDS011;34578;0.000;0.000;2024-03-02T15:29:51;6.82;;;1.90;;
48777;SDS011;34578;0.000;0.000;2024-03-02T15:34:55;3.17;;;1.00;;
48777;SDS011;34578;0.000;0.000;2024-03-02T15:39:55;3.60;;;1.13;;
48777;SDS011;34578;0.000;0.000;2024-03-02T15:44:55;0.50;;;0.40;;
48777;SDS011;34578;0.000;0.000;2024-03-02T15:49:56;1.03;;;0.50;;
48777;SDS011;34578;0.000;0.000;2024-03-02T15:54:56;2.43;;;0.77;;
48777;SDS011;34578;0.000;0.000;2024-03-02T15:59:56;1.13;;;0.63;;
48777;SDS011;34578;0.000;0.000;2024-03-02T16:04:57;3.80;;;0.80;;
48777;SDS011;34578;0.000;0.000;2024-03-02T16:09:57;0.80;;;0.50;;
48777;SDS011;34578;0.000;0.000;2024-03-02T16:14:57;0.80;;;0.43;;
48777;SDS011;34578;0.000;0.000;2024-03-02T16:19:58;1.60;;;0.70;;
48777;SDS011;34578;0.000;0.000;2024-03-02T16:24:58;0.77;;;0.50;;
48777;SDS011;34578;0.000;0.000;2024-03-02T16:29:58;1.13;;;0.50;;
48777;SDS011;34578;0.000;0.000;2024-03-02T16:34:59;1.42;;;0.52;;
48777;SDS011;34578;0.000;0.000;2024-03-02T16:40:00;4.70;;;0.73;;
48777;SDS011;34578;0.000;0.000;2024-03-02T16:45:00;4.10;;;0.87;;
48777;SDS011;34578;0.000;0.000;2024-03-02T16:50:00;1.63;;;0.60;;
48777;SDS011;34578;0.000;0.000;2024-03-02T16:55:02;1.63;;;0.50;;
48777;SDS011;34578;0.000;0.000;2024-03-02T17:00:03;1.98;;;0.63;;
48777;SDS011;34578;0.000;0.000;2024-03-02T17:05:06;9.63;;;0.60;;
48777;SDS011;34578;0.000;0.000;2024-03-02T17:10:07;2.28;;;0.80;;
48777;SDS011;34578;0.000;0.000;2024-03-02T17:15:08;1.45;;;0.70;;
48777;SDS011;34578;0.000;0.000;2024-03-02T17:20:09;2.92;;;0.70;;
48777;SDS011;34578;0.000;0.000;2024-03-02T17:25:11;3.08;;;0.93;;
48777;SDS011;34578;0.000;0.000;2024-03-02T17:30:12;1.63;;;0.50;;
48777;SDS011;34578;0.000;0.000;2024-03-02T17:35:13;2.47;;;0.75;;
48777;SDS011;34578;0.000;0.000;2024-03-02T17:40:17;2.50;;;0.80;;
48777;SDS011;34578;0.000;0.000;2024-03-02T17:45:18;1.30;;;0.60;;
48777;SDS011;34578;0.000;0.000;2024-03-02T17:50:18;5.37;;;0.90;;
48777;SDS011;34578;0.000;0.000;2024-03-02T17:55:18;2.10;;;0.93;;
48777;SDS011;34578;0.000;0.000;2024-03-02T18:00:19;1.80;;;0.50;;
48777;SDS011;34578;0.000;0.000;2024-03-02T18:05:21;3.40;;;0.77;;
48777;SDS011;34578;0.000;0.000;2024-03-02T18:10:21;7.00;;;0.60;;
48777;SDS011;34578;0.000;0.000;2024-03-02T18:15:21;2.60;;;1.00;;
48777;SDS011;34578;0.000;0.000;2024-03-02T18:20:22;5.03;;;0.70;;
48777;SDS011;34578;0.000;0.000;2024-03-02T18:25:22;2.20;;;0.70;;
48777;SDS011;34578;0.000;0.000;2024-03-02T18:30:22;1.33;;;0.63;;
48777;SDS011;34578;0.000;0.000;2024-03-02T18:35:23;2.60;;;0.90;;
48777;SDS011;34578;0.000;0.000;2024-03-02T18:40:23;7.87;;;1.47;;
48777;SDS011;34578;0.000;0.000;2024-03-02T18:45:24;6.35;;;1.20;;
48777;SDS011;34578;0.000;0.000;2024-03-02T18:50:25;4.40;;;1.30;;
48777;SDS011;34578;0.000;0.000;2024-03-02T18:55:26;2.65;;;1.30;;
48777;SDS011;34578;0.000;0.000;2024-03-02T19:00:27;2.03;;;1.23;;
48777;SDS011;34578;0.000;0.000;2024-03-02T19:05:27;3.23;;;1.43;;
48777;SDS011;34578;0.000;0.000;2024-03-02T19:10:28;3.07;;;1.20;;
48777;SDS011;34578;0.000;0.000;2024-03-02T19:15:28;3.60;;;1.17;;
48777;SDS011;34578;0.000;0.000;2024-03-02T19:20:28;2.53;;;1.30;;
48777;SDS011;34578;0.000;0.000;2024-03-02T19:25:29;3.22;;;1.13;;
48777;SDS011;34578;0.000;0.000;2024-03-02T19:30:29;2.03;;;0.90;;
48777;SDS011;34578;0.000;0.000;2024-03-02T19:35:30;2.97;;;1.10;;
48777;SDS011;34578;0.000;0.000;2024-03-02T19:40:31;5.68;;;1.10;;
48777;SDS011;34578;0.000;0.000;2024-03-02T19:45:31;6.60;;;1.10;;
48777;SDS011;34578;0.000;0.000;2024-03-02T19:50:32;2.85;;;1.40;;
48777;SDS011;34578;0.000;0.000;2024-03-02T19:55:32;6.63;;;2.43;;
48777;SDS011;34578;0.000;0.000;2024-03-02T20:00:32;4.22;;;1.40;;
48777;SDS011;34578;0.000;0.000;2024-03-02T20:05:33;3.70;;;1.47;;
48777;SDS011;34578;0.000;0.000;2024-03-02T20:10:33;4.53;;;1.80;;
48777;SDS011;34578;0.000;0.000;2024-03-02T20:15:34;5.55;;;2.28;;
48777;SDS011;34578;0.000;0.000;2024-03-02T20:20:34;6.00;;;2.03;;
48777;SDS011;34578;0.000;0.000;2024-03-02T20:25:34;8.93;;;2.93;;
48777;SDS011;34578;0.000;0.000;2024-03-02T20:30:35;6.37;;;1.80;;
48777;SDS011;34578;0.000;0.000;2024-03-02T20:35:35;9.10;;;1.90;;
48777;SDS011;34578;0.000;0.000;2024-03-02T20:40:35;5.73;;;1.73;;
48777;SDS011;34578;0.000;0.000;2024-03-02T20:45:36;4.50;;;1.40;;
48777;SDS011;34578;0.000;0.000;2024-03-02T20:50:36;6.40;;;1.90;;
48777;SDS011;34578;0.000;0.000;2024-03-02T20:55:37;4.43;;;1.70;;
48777;SDS011;34578;0.000;0.000;2024-03-02T21:00:37;4.22;;;1.20;;
48777;SDS011;34578;0.000;0.000;2024-03-02T21:05:38;2.70;;;1.03;;
48777;SDS011;34578;0.000;0.000;2024-03-02T21:10:38;5.63;;;1.80;;
48777;SDS011;34578;0.000;0.000;2024-03-02T21:15:38;5.77;;;1.23;;
48777;SDS011;34578;0.000;0.000;2024-03-02T21:20:39;5.43;;;1.40;;
48777;SDS011;34578;0.000;0.000;2024-03-02T21:25:39;3.67;;;1.43;;
48777;SDS011;34578;0.000;0.000;2024-03-02T21:30:39;3.53;;;1.57;;
48777;SDS011;34578;0.000;0.000;2024-03-02T21:35:40;2.97;;;1.33;;
48777;SDS011;34578;0.000;0.000;2024-03-02T21:40:40;5.77;;;2.20;;
48777;SDS011;34578;0.000;0.000;2024-03-02T21:45:41;7.38;;;1.17;;
48777;SDS011;34578;0.000;0.000;2024-03-02T21:50:41;3.93;;;1.33;;
48777;SDS011;34578;0.000;0.000;2024-03-02T21:55:42;3.53;;;1.80;;
48777;SDS011;34578;0.000;0.000;2024-03-02T22:00:43;4.93;;;1.60;;
48777;SDS011;34578;0.000;0.000;2024-03-02T22:05:43;3.43;;;1.30;;
48777;SDS011;34578;0.000;0.000;2024-03-02T22:10:43;4.37;;;1.20;;
48777;SDS011;34578;0.000;0.000;2024-03-02T22:15:44;2.90;;;1.50;;
48777;SDS011;34578;0.000;0.000;2024-03-02T22:20:44;3.53;;;1.03;;
48777;SDS011;34578;0.000;0.000;2024-03-02T22:25:44;4.15;;;1.58;;
48777;SDS011;34578;0.000;0.000;2024-03-02T22:30:45;7.67;;;1.67;;
48777;SDS011;34578;0.000;0.000;2024-03-02T22:35:45;6.13;;;2.13;;
48777;SDS011;34578;0.000;0.000;2024-03-02T22:40:46;3.55;;;1.60;;
48777;SDS011;34578;0.000;0.000;2024-03-02T22:45:46;2.28;;;1.23;;
48777;SDS011;34578;0.000;0.000;2024-03-02T22:50:47;3.42;;;1.30;;
48777;SDS011;34578;0.000;0.000;2024-03-02T22:55:47;7.63;;;2.23;;
48777;SDS011;34578;0.000;0.000;2024-03-02T23:00:48;6.43;;;1.40;;
48777;SDS011;34578;0.000;0.000;2024-03-02T23:05:48;6.18;;;1.40;;
48777;SDS011;34578;0.000;0.000;2024-03-02T23:10:49;4.13;;;1.98;;
48777;SDS011;34578;0.000;0.000;2024-03-02T23:15:50;6.33;;;1.73;;
48777;SDS011;34578;0.000;0.000;2024-03-02T23:20:51;7.32;;;1.73;;
48777;SDS011;34578;0.000;0.000;2024-03-02T23:25:51;6.53;;;1.45;;
48777;SDS011;34578;0.000;0.000;2024-03-02T23:30:52;6.72;;;1.83;;
48777;SDS011;34578;0.000;0.000;2024-03-02T23:35:53;2.75;;;1.23;;
48777;SDS011;34578;0.000;0.000;2024-03-02T23:40:54;3.73;;;1.23;;
48777;SDS011;34578;0.000;0.000;2024-03-02T23:46:07;6.00;;;2.10;;
48777;SDS011;34578;0.000;0.000;2024-03-02T23:51:11;7.60;;;1.60;;
48777;SDS011;34578;0.000;0.000;2024-03-02T23:56:12;2.30;;;1.43;;
